Time;durP1;ratioP1;P1;durP2;ratioP2;P2;SDS_P1;SDS_P2;PMS_P1;PMS_P2;Temp;Humidity;BMP_temperature;BMP_pressure;BME280_temperature;BME280_humidity;BME280_pressure;Samples;Min_cycle;Max_cycle;Signal;HPM_P1;HPM_P2
2022/05/06 00:00:28;;;;;;;3.90;1.75;;;;;;;8.64;41.49;101474.59;5093351;28;20040;-81
2022/05/06 00:02:54;;;;;;;2.90;1.70;;;;;;;8.65;41.31;101467.22;5093260;28;20130;-81
2022/05/06 00:05:21;;;;;;;4.72;2.47;;;;;;;8.66;40.74;101466.13;5091935;28;20477;-82
2022/05/06 00:07:53;;;;;;;5.25;1.85;;;;;;;8.67;41.45;101465.06;5094449;28;20502;-82
2022/05/06 00:10:20;;;;;;;4.05;1.88;;;;;;;8.68;41.31;101470.31;5093162;28;20089;-82
2022/05/06 00:12:46;;;;;;;5.95;3.60;;;;;;;8.68;41.54;101466.75;5106972;28;20044;-81
2022/05/06 00:15:12;;;;;;;2.65;1.77;;;;;;;8.69;41.31;101468.41;5099473;28;20046;-81
2022/05/06 00:17:37;;;;;;;4.63;2.00;;;;;;;8.71;40.89;101472.53;5112191;28;20097;-82
2022/05/06 00:20:04;;;;;;;3.08;2.28;;;;;;;8.74;41.40;101466.56;5094527;28;20053;-82
2022/05/06 00:22:29;;;;;;;2.90;1.90;;;;;;;8.75;40.50;101459.19;5093106;28;20564;-82
2022/05/06 00:24:56;;;;;;;3.30;1.80;;;;;;;8.75;41.12;101461.91;5096267;28;20032;-81
2022/05/06 00:27:21;;;;;;;3.75;2.10;;;;;;;8.76;40.58;101460.84;5099128;28;20079;-81
2022/05/06 00:29:47;;;;;;;2.85;1.95;;;;;;;8.76;40.68;101452.63;5108073;28;20134;-83
2022/05/06 00:32:13;;;;;;;4.45;1.85;;;;;;;8.77;40.70;101448.81;5090423;28;20119;-81
2022/05/06 00:34:38;;;;;;;2.63;1.85;;;;;;;8.80;40.66;101455.69;5093036;28;20044;-82
2022/05/06 00:37:04;;;;;;;3.90;2.10;;;;;;;8.77;40.60;101452.38;5091539;28;20040;-80
2022/05/06 00:39:30;;;;;;;2.83;1.75;;;;;;;8.74;40.56;101455.63;5092821;28;20048;-80
2022/05/06 00:41:56;;;;;;;3.15;1.88;;;;;;;8.76;40.47;101455.38;5092483;28;20478;-81
2022/05/06 00:44:25;;;;;;;2.53;1.70;;;;;;;8.79;40.88;101448.56;5092401;28;20101;-81
2022/05/06 00:46:52;;;;;;;2.95;1.80;;;;;;;8.82;40.46;101443.41;5089757;28;20036;-80
2022/05/06 00:49:18;;;;;;;3.60;1.88;;;;;;;8.83;40.66;101446.97;5085784;28;20028;-81
2022/05/06 00:51:44;;;;;;;6.82;2.10;;;;;;;8.86;40.67;101451.97;5103260;28;20032;-81
2022/05/06 00:54:10;;;;;;;5.07;1.73;;;;;;;8.85;40.90;101453.88;5092476;28;20570;-82
2022/05/06 00:56:35;;;;;;;2.67;1.65;;;;;;;8.87;40.74;101450.91;5091859;28;20131;-83
2022/05/06 00:59:01;;;;;;;3.22;2.03;;;;;;;8.85;41.17;101453.03;5092568;28;20051;-81
2022/05/06 01:01:29;;;;;;;3.65;2.03;;;;;;;8.86;40.77;101451.97;5101113;28;20070;-81
2022/05/06 01:03:55;;;;;;;2.55;1.75;;;;;;;8.84;40.58;101446.72;5094092;28;20421;-81
2022/05/06 01:06:21;;;;;;;4.32;1.73;;;;;;;8.87;40.61;101449.00;5091175;28;20039;-80
2022/05/06 01:08:50;;;;;;;3.30;2.10;;;;;;;8.89;40.50;101451.47;5088906;28;20518;-81
2022/05/06 01:11:17;;;;;;;4.22;2.05;;;;;;;8.89;40.60;101452.28;5090637;28;20071;-81
2022/05/06 01:13:45;;;;;;;4.15;2.25;;;;;;;8.91;41.19;101452.88;5074497;28;20135;-81
2022/05/06 01:16:15;;;;;;;4.00;1.90;;;;;;;8.95;40.72;101443.06;5069016;28;20465;-81
2022/05/06 01:18:47;;;;;;;3.80;1.70;;;;;;;8.92;40.32;101445.50;5098028;28;20043;-81
2022/05/06 01:21:22;;;;;;;3.20;1.83;;;;;;;8.90;40.48;101447.66;5090427;28;20047;-81
2022/05/06 01:23:48;;;;;;;3.42;1.92;;;;;;;8.92;40.93;101450.97;5079931;28;20047;-81
2022/05/06 01:26:14;;;;;;;8.32;2.10;;;;;;;8.90;40.18;101453.94;5091604;28;20268;-80
2022/05/06 01:28:42;;;;;;;5.50;2.00;;;;;;;8.89;41.10;101449.56;5090850;28;20140;-80
2022/05/06 01:31:07;;;;;;;4.93;2.10;;;;;;;8.90;40.17;101451.22;5107889;28;20040;-81
2022/05/06 01:33:35;;;;;;;3.17;2.00;;;;;;;8.90;40.46;101450.38;5110770;28;20042;-80
2022/05/06 01:36:04;;;;;;;5.28;1.98;;;;;;;8.89;40.61;101440.53;5094797;28;20043;-81
2022/05/06 01:38:44;;;;;;;5.25;2.08;;;;;;;8.93;40.05;101444.41;5090176;28;20543;-81
2022/05/06 01:41:24;;;;;;;6.78;2.20;;;;;;;8.92;40.34;101442.75;5090552;28;20546;-81
2022/05/06 01:44:07;;;;;;;7.75;1.90;;;;;;;8.88;40.31;101433.41;5109143;28;20077;-81
2022/05/06 01:46:36;;;;;;;8.00;2.70;;;;;;;8.88;40.77;101441.59;5090635;28;20039;-81
2022/05/06 01:49:04;;;;;;;4.05;2.10;;;;;;;8.86;40.74;101441.84;5073574;28;20538;-81
2022/05/06 01:51:30;;;;;;;5.60;2.17;;;;;;;8.87;41.16;101451.72;5088340;28;20059;-81
2022/05/06 01:53:59;;;;;;;4.10;2.17;;;;;;;8.89;40.40;101437.78;5073941;28;20043;-81
2022/05/06 01:56:25;;;;;;;4.38;2.22;;;;;;;8.89;40.53;101440.53;5091028;28;20406;-80
2022/05/06 01:58:52;;;;;;;5.97;3.00;;;;;;;8.89;40.40;101437.78;5089693;28;20044;-80
2022/05/06 02:01:18;;;;;;;5.28;2.42;;;;;;;8.87;40.35;101446.25;5072822;28;20073;-80
2022/05/06 02:06:31;;;;;;;5.25;2.47;;;;;;;8.86;40.39;101441.03;5110174;28;20043;-80
2022/05/06 02:09:09;;;;;;;4.10;2.13;;;;;;;8.89;40.75;101438.63;5093041;28;20044;-80
2022/05/06 02:11:55;;;;;;;5.35;2.92;;;;;;;8.92;41.08;101440.03;5100904;28;20047;-80
2022/05/06 02:14:28;;;;;;;3.95;2.42;;;;;;;8.93;40.25;101438.94;5092677;28;20039;-80
2022/05/06 02:17:16;;;;;;;;;;;;;;;8.93;40.30;101428.81;5092123;28;20426;-82
2022/05/06 02:19:51;;;;;;;4.70;2.20;;;;;;;8.98;41.00;101437.09;5090967;28;19920;-81
2022/05/06 02:22:29;;;;;;;5.35;2.35;;;;;;;9.03;40.52;101439.09;5091449;28;20039;-81
2022/05/06 02:25:22;;;;;;;6.68;3.17;;;;;;;9.05;40.60;101439.69;5088563;28;20048;-81
2022/05/06 02:28:05;;;;;;;3.15;1.95;;;;;;;9.04;40.38;101438.84;5106101;28;20050;-81
2022/05/06 02:33:23;;;;;;;4.18;2.20;;;;;;;9.03;40.80;101452.78;5089837;28;20086;-81
2022/05/06 02:36:05;;;;;;;6.07;2.55;;;;;;;9.05;40.85;101451.44;5107822;28;20047;-80
2022/05/06 02:38:33;;;;;;;5.20;2.10;;;;;;;9.05;40.77;101445.16;5076505;28;20085;-81
2022/05/06 02:40:59;;;;;;;4.53;2.33;;;;;;;9.02;41.44;101454.69;5089588;28;20495;-80
2022/05/06 02:43:29;;;;;;;3.15;1.70;;;;;;;8.99;40.75;101449.69;5101963;28;20570;-81
2022/05/06 02:45:55;;;;;;;4.35;2.03;;;;;;;8.95;40.56;101445.81;5108105;28;20039;-81
2022/05/06 02:48:21;;;;;;;5.90;2.40;;;;;;;8.93;41.36;101444.41;5089524;28;20040;-82
2022/05/06 02:50:47;;;;;;;2.97;2.03;;;;;;;8.95;40.88;101442.25;5096630;28;20129;-82
2022/05/06 02:53:14;;;;;;;6.53;2.22;;;;;;;8.95;41.16;101448.53;5082399;28;20086;-82
2022/05/06 02:55:40;;;;;;;4.65;2.03;;;;;;;8.96;41.44;101441.16;5089491;28;20036;-82
2022/05/06 02:58:09;;;;;;;2.95;1.65;;;;;;;9.01;41.07;101449.44;5089385;28;20040;-82
2022/05/06 03:00:36;;;;;;;3.60;1.58;;;;;;;9.04;41.21;101446.22;5089032;28;20087;-82
2022/05/06 03:03:04;;;;;;;2.87;1.67;;;;;;;9.02;40.72;101448.38;5072858;28;20494;-81
2022/05/06 03:05:32;;;;;;;3.78;1.75;;;;;;;9.01;41.29;101443.97;5091601;28;20499;-81
2022/05/06 03:08:00;;;;;;;7.60;2.13;;;;;;;9.02;40.68;101442.88;5100262;28;20204;-80
2022/05/06 03:10:29;;;;;;;5.07;1.88;;;;;;;9.02;41.08;101448.38;5089821;28;20078;-81
2022/05/06 03:12:58;;;;;;;3.30;2.00;;;;;;;9.05;41.19;101454.19;5092693;28;20544;-81
2022/05/06 03:15:26;;;;;;;3.33;1.95;;;;;;;9.09;41.54;101454.50;5096649;28;20134;-81
2022/05/06 03:17:58;;;;;;;3.15;1.75;;;;;;;9.11;41.47;101449.59;5104191;28;20168;-81
2022/05/06 03:20:23;;;;;;;7.07;2.08;;;;;;;9.11;41.67;101454.25;5095808;28;20543;-81
2022/05/06 03:22:50;;;;;;;4.95;2.08;;;;;;;9.11;41.25;101452.34;5102668;28;20114;-81
2022/05/06 03:25:16;;;;;;;2.72;1.70;;;;;;;9.11;41.58;101451.53;5096030;28;20044;-81
2022/05/06 03:28:02;;;;;;;5.63;2.30;;;;;;;9.10;40.96;101466.28;5099695;28;20040;-81
2022/05/06 03:30:30;;;;;;;3.05;1.65;;;;;;;9.08;41.48;101455.59;5093315;28;20064;-81
2022/05/06 03:33:04;;;;;;;3.90;1.73;;;;;;;9.04;41.76;101457.19;5081826;28;20127;-80
2022/05/06 03:35:35;;;;;;;3.78;1.90;;;;;;;9.03;41.61;101461.81;5091385;28;20067;-81
2022/05/06 03:38:01;;;;;;;3.35;1.67;;;;;;;9.04;41.76;101459.91;5092113;28;20043;-81
2022/05/06 03:40:27;;;;;;;5.65;2.17;;;;;;;9.04;42.10;101457.19;5094784;28;20044;-80
2022/05/06 03:42:53;;;;;;;3.83;1.83;;;;;;;9.04;41.98;101457.19;5092051;28;20525;-80
2022/05/06 03:45:20;;;;;;;3.10;2.08;;;;;;;9.04;42.11;101465.41;5087610;28;20032;-81
2022/05/06 03:47:46;;;;;;;3.35;1.27;;;;;;;9.03;42.52;101461.00;5096151;28;20046;-80
2022/05/06 03:52:58;;;;;;;4.30;2.45;;;;;;;9.01;41.83;101460.41;5087297;28;20036;-81
2022/05/06 03:55:26;;;;;;;3.47;1.92;;;;;;;9.00;42.68;101466.94;5085907;28;20047;-81
2022/05/06 03:57:53;;;;;;;3.15;1.70;;;;;;;9.01;42.53;101468.59;5096626;28;20040;-81
2022/05/06 04:00:21;;;;;;;6.47;1.75;;;;;;;9.00;42.72;101472.44;5091230;28;20039;-81
2022/05/06 04:02:55;;;;;;;4.63;1.85;;;;;;;8.96;42.41;101471.28;5098851;28;20039;-81
2022/05/06 04:05:25;;;;;;;3.13;1.55;;;;;;;8.93;42.90;101472.59;5091120;28;20085;-82
2022/05/06 04:07:52;;;;;;;4.20;1.70;;;;;;;8.89;42.71;101468.72;5073608;28;20611;-82
2022/05/06 04:10:18;;;;;;;4.38;1.88;;;;;;;8.83;43.01;101475.16;5088770;28;20402;-81
2022/05/06 04:12:45;;;;;;;3.45;1.60;;;;;;;8.80;43.10;101477.59;5092283;28;20039;-81
2022/05/06 04:15:11;;;;;;;6.55;1.92;;;;;;;8.78;42.55;101475.09;5101582;28;20059;-81
2022/05/06 04:17:39;;;;;;;4.10;1.45;;;;;;;8.83;42.96;101464.22;5078688;28;20044;-82
2022/05/06 04:25:37;;;;;;;5.95;1.80;;;;;;;9.48;42.72;101459.97;5087608;28;20400;-81
2022/05/06 04:28:04;;;;;;;5.18;1.85;;;;;;;9.80;41.58;101458.19;5088678;28;20525;-81
2022/05/06 04:30:30;;;;;;;6.75;2.20;;;;;;;10.12;41.42;101458.28;5076141;28;20058;-81
2022/05/06 04:33:04;;;;;;;4.13;1.85;;;;;;;10.37;41.15;101449.50;5086911;28;20036;-82
2022/05/06 04:35:31;;;;;;;7.95;1.98;;;;;;;10.55;40.25;101446.38;5087300;28;20129;-81
2022/05/06 04:37:56;;;;;;;3.38;1.80;;;;;;;10.67;41.03;101459.94;5116076;27;20532;-82
2022/05/06 04:40:22;;;;;;;7.60;1.88;;;;;;;10.91;40.38;101452.16;5094360;28;20089;-83
2022/05/06 04:42:48;;;;;;;3.90;2.25;;;;;;;11.22;39.59;101446.88;5076324;28;20036;-83
2022/05/06 04:45:17;;;;;;;6.85;1.85;;;;;;;11.57;39.31;101452.56;5102823;28;20039;-83
2022/05/06 04:47:52;;;;;;;3.80;1.60;;;;;;;11.77;38.67;101441.63;5095714;28;20089;-83
2022/05/06 04:50:20;;;;;;;3.92;1.55;;;;;;;11.86;38.76;101452.16;5085082;28;20421;-82
2022/05/06 04:52:45;;;;;;;2.75;1.65;;;;;;;11.91;37.67;101449.41;5089033;28;20138;-83
2022/05/06 04:55:11;;;;;;;18.58;2.03;;;;;;;11.97;37.64;101440.06;5095418;28;20130;-83
2022/05/06 04:57:37;;;;;;;3.95;1.33;;;;;;;12.27;37.44;101445.66;5108334;28;20114;-83
2022/05/06 05:00:04;;;;;;;4.57;1.70;;;;;;;12.50;37.24;101449.00;5100887;27;20036;-82
2022/05/06 05:02:33;;;;;;;5.35;1.70;;;;;;;12.53;36.89;101449.28;5101638;27;20140;-82
2022/05/06 05:05:00;;;;;;;5.70;1.85;;;;;;;12.57;37.26;101453.13;5108612;27;20032;-82
2022/05/06 05:07:31;;;;;;;5.30;1.85;;;;;;;12.59;36.72;101453.66;5109335;27;20047;-82
2022/05/06 05:09:58;;;;;;;4.65;1.35;;;;;;;12.50;37.28;101441.56;5092427;28;20502;-82
2022/05/06 05:12:24;;;;;;;3.05;1.77;;;;;;;12.47;37.74;101450.34;5106998;27;20054;-81
2022/05/06 05:14:52;;;;;;;10.85;2.22;;;;;;;12.35;37.61;101447.88;5096301;28;20048;-81
2022/05/06 05:17:21;;;;;;;4.93;1.95;;;;;;;12.34;38.22;101446.22;5102900;28;20514;-82
2022/05/06 05:19:47;;;;;;;4.25;1.60;;;;;;;12.37;37.96;101433.84;5090489;28;20039;-81
2022/05/06 05:22:13;;;;;;;2.00;1.52;;;;;;;12.33;37.99;101433.56;5106299;28;20059;-82
2022/05/06 05:24:42;;;;;;;;;;;;;;;12.30;38.29;101439.59;5092453;28;20560;-81
2022/05/06 05:27:09;;;;;;;2.42;1.67;;;;;;;12.24;38.04;101437.94;5080254;28;19991;-81
2022/05/06 05:29:35;;;;;;;5.80;1.67;;;;;;;12.16;38.62;101437.66;5097501;28;20464;-81
2022/05/06 05:32:02;;;;;;;4.05;1.65;;;;;;;12.14;38.60;101439.84;5076339;28;20137;-81
2022/05/06 05:34:28;;;;;;;8.50;1.77;;;;;;;12.11;38.73;101446.72;5094532;28;20027;-81
2022/05/06 05:36:54;;;;;;;4.18;1.35;;;;;;;12.07;37.99;101442.88;5088907;28;20039;-82
2022/05/06 05:39:20;;;;;;;4.90;1.60;;;;;;;12.06;38.05;101450.28;5105382;27;20036;-77
2022/05/06 05:41:49;;;;;;;7.97;1.67;;;;;;;12.02;38.56;101451.13;5092371;28;20135;-77
2022/05/06 05:49:49;;;;;;;4.20;1.70;;;;;;;11.72;38.95;101454.53;5097280;28;20620;-79
2022/05/06 05:52:15;;;;;;;3.58;1.70;;;;;;;11.65;39.18;101465.81;5104721;28;20039;-80
2022/05/06 05:54:41;;;;;;;4.50;1.40;;;;;;;11.58;38.69;101454.19;5097790;28;20139;-79
2022/05/06 05:57:07;;;;;;;8.05;2.10;;;;;;;11.59;39.80;101455.03;5093909;28;20036;-80
2022/05/06 05:59:36;;;;;;;4.05;1.83;;;;;;;11.59;39.39;101458.59;5104195;28;20163;-80
2022/05/06 06:02:02;;;;;;;;;;;;;;;11.58;39.87;101451.44;5087542;28;20043;-78
2022/05/06 06:04:28;;;;;;;6.05;1.50;;;;;;;11.60;40.13;101457.50;5101646;28;20433;-79
2022/05/06 06:06:54;;;;;;;3.03;1.35;;;;;;;11.61;39.58;101453.66;5110014;28;20085;-78
2022/05/06 06:09:22;;;;;;;3.72;1.73;;;;;;;11.64;40.27;101455.06;5098901;28;20042;-78
2022/05/06 06:11:49;;;;;;;3.42;1.80;;;;;;;11.70;40.12;101449.31;5074210;28;20118;-79
2022/05/06 06:14:16;;;;;;;4.47;1.60;;;;;;;11.78;39.59;101451.56;5079021;28;20032;-78
2022/05/06 06:16:43;;;;;;;6.32;1.85;;;;;;;11.91;39.79;101452.16;5088679;28;20110;-79
2022/05/06 06:19:09;;;;;;;3.05;1.77;;;;;;;11.97;39.49;101448.31;5091455;28;20457;-78
2022/05/06 06:21:40;;;;;;;8.70;2.08;;;;;;;12.07;39.85;101443.69;5096426;28;20036;-78
2022/05/06 06:24:06;;;;;;;4.82;2.30;;;;;;;12.31;39.17;101433.00;5097120;28;20093;-77
2022/05/06 06:26:32;;;;;;;5.75;2.00;;;;;;;12.61;39.22;101439.63;5096932;28;20608;-77
2022/05/06 06:29:02;;;;;;;6.93;2.42;;;;;;;12.98;38.78;101445.66;5106392;28;20142;-77
2022/05/06 06:31:31;;;;;;;7.22;2.78;;;;;;;13.27;37.81;101448.69;5105496;28;20034;-77
2022/05/06 06:34:01;;;;;;;7.40;2.50;;;;;;;13.60;36.86;101440.03;5105171;28;20089;-77
2022/05/06 06:36:32;;;;;;;7.20;2.22;;;;;;;13.98;36.63;101435.72;5091591;28;20133;-78
2022/05/06 06:38:59;;;;;;;4.10;2.05;;;;;;;14.12;36.49;101428.47;5108171;28;20035;-77
2022/05/06 06:41:26;;;;;;;8.80;1.80;;;;;;;14.25;36.39;101440.81;5091848;28;20155;-77
2022/05/06 06:43:51;;;;;;;5.82;2.42;;;;;;;14.41;34.93;101434.88;5101868;28;20032;-78
2022/05/06 06:46:40;;;;;;;4.75;2.03;;;;;;;14.62;34.92;101430.06;5082567;28;20082;-78
2022/05/06 06:49:45;;;;;;;8.10;2.40;;;;;;;14.92;34.23;101431.69;5099427;28;20048;-77
2022/05/06 06:52:30;;;;;;;4.57;2.20;;;;;;;15.14;34.43;101430.41;5061417;28;20063;-78
2022/05/06 06:54:57;;;;;;;4.45;2.08;;;;;;;15.33;33.98;101434.88;5113285;28;20085;-77
2022/05/06 06:57:25;;;;;;;3.55;2.13;;;;;;;15.40;34.11;101426.22;5090723;28;20501;-77
2022/05/06 06:59:50;;;;;;;6.00;2.20;;;;;;;15.66;33.89;101422.06;5112246;28;20044;-78
2022/05/06 07:02:16;;;;;;;4.25;2.05;;;;;;;15.96;34.11;101431.91;5111405;28;20551;-77
2022/05/06 07:04:41;;;;;;;4.43;1.85;;;;;;;16.32;33.68;101425.88;5109900;28;20683;-77
2022/05/06 07:12:35;;;;;;;5.57;1.48;;;;;;;16.49;32.36;101434.47;5110643;28;20035;-77
2022/05/06 07:15:02;;;;;;;3.03;1.27;;;;;;;16.32;32.77;101431.41;5110092;27;20039;-77
2022/05/06 07:17:28;;;;;;;6.22;1.88;;;;;;;16.37;32.48;101434.09;5095419;28;20066;-77
2022/05/06 07:19:59;;;;;;;4.63;1.65;;;;;;;16.40;32.83;101430.72;5113204;28;20082;-77
2022/05/06 07:22:25;;;;;;;3.92;1.40;;;;;;;16.31;32.97;101432.50;5106127;28;20499;-77
2022/05/06 07:24:50;;;;;;;5.35;1.80;;;;;;;16.29;33.35;101429.22;5093832;28;20051;-77
2022/05/06 07:27:18;;;;;;;5.35;1.88;;;;;;;16.45;33.32;101432.56;5102519;28;20556;-85
2022/05/06 07:29:44;;;;;;;5.65;1.50;;;;;;;16.54;33.30;101431.59;5114656;28;20048;-88
2022/05/06 07:32:10;;;;;;;3.80;1.50;;;;;;;16.83;33.25;101422.25;5110238;28;20448;-88
2022/05/06 07:34:36;;;;;;;3.05;1.52;;;;;;;17.12;32.67;101431.16;5101300;28;20536;-88
2022/05/06 07:37:02;;;;;;;3.50;1.63;;;;;;;17.29;32.33;101425.00;5109614;27;20036;-85
2022/05/06 07:39:28;;;;;;;2.58;1.40;;;;;;;17.30;32.36;101421.13;5112415;28;20059;-86
2022/05/06 07:41:53;;;;;;;4.47;1.70;;;;;;;17.36;32.49;101419.91;5110659;27;20039;-86
2022/05/06 07:44:19;;;;;;;3.38;1.80;;;;;;;17.59;32.17;101423.59;5113100;28;20607;-87
2022/05/06 07:46:45;;;;;;;3.53;1.80;;;;;;;17.81;31.84;101419.28;5108023;28;20123;-86
2022/05/06 07:49:10;;;;;;;2.40;1.42;;;;;;;17.81;31.92;101419.28;5111136;27;20438;-85
2022/05/06 07:51:36;;;;;;;2.40;1.60;;;;;;;17.80;32.57;101423.19;5103254;27;20039;-86
2022/05/06 07:54:02;;;;;;;4.53;1.60;;;;;;;17.86;32.11;101416.38;5114558;27;20036;-87
2022/05/06 07:56:30;;;;;;;5.78;1.60;;;;;;;18.15;32.07;101419.59;5117413;27;20078;-84
2022/05/06 07:58:59;;;;;;;2.67;1.60;;;;;;;18.12;32.15;101414.69;5106328;27;20042;-84
2022/05/06 08:06:55;;;;;;;8.48;1.77;;;;;;;17.15;32.23;101411.13;5106965;27;20418;-79
2022/05/06 08:09:21;;;;;;;4.55;1.63;;;;;;;16.85;32.70;101420.03;5109946;28;20091;-87
2022/05/06 08:11:47;;;;;;;2.95;1.60;;;;;;;16.55;33.79;101411.06;5101972;28;20412;-84
2022/05/06 08:14:15;;;;;;;3.88;1.70;;;;;;;16.39;33.68;101417.16;5104719;28;20511;-82
2022/05/06 08:16:41;;;;;;;4.68;1.88;;;;;;;16.44;33.46;101420.66;5105788;28;20474;-84
2022/05/06 08:19:07;;;;;;;2.90;1.90;;;;;;;16.50;33.15;101402.03;5104219;28;20035;-84
2022/05/06 08:21:32;;;;;;;2.60;1.90;;;;;;;16.67;33.51;101407.88;5092551;28;20472;-84
2022/05/06 08:23:58;;;;;;;3.63;1.90;;;;;;;16.92;33.38;101403.00;5096686;28;20036;-83
2022/05/06 08:26:23;;;;;;;6.22;2.00;;;;;;;16.82;32.85;101398.44;5109443;28;20056;-85
2022/05/06 08:28:49;;;;;;;3.28;1.50;;;;;;;16.67;33.58;101402.34;5111769;28;20039;-84
2022/05/06 08:31:14;;;;;;;5.13;2.00;;;;;;;16.57;34.01;101396.91;5113109;28;20046;-85
2022/05/06 08:33:40;;;;;;;5.70;2.53;;;;;;;16.45;33.71;101408.47;5112944;28;20486;-83
2022/05/06 08:36:06;;;;;;;5.60;2.47;;;;;;;16.30;34.02;101400.38;5112184;28;20039;-84
2022/05/06 08:38:32;;;;;;;3.08;1.95;;;;;;;16.19;34.79;101396.16;5107940;28;20044;-83
2022/05/06 08:40:59;;;;;;;6.38;2.22;;;;;;;16.12;34.48;101401.22;5113121;28;20040;-83
2022/05/06 08:43:25;;;;;;;6.40;1.90;;;;;;;15.96;34.76;101397.84;5111589;28;20383;-83
2022/05/06 08:51:21;;;;;;;4.63;2.00;;;;;;;15.53;35.67;101399.81;5111550;28;20049;-83
2022/05/06 08:53:47;;;;;;;5.18;1.88;;;;;;;15.38;35.69;101393.34;5088243;28;20065;-84
2022/05/06 08:56:12;;;;;;;2.40;2.08;;;;;;;15.34;36.34;101391.47;5095501;28;20040;-83
2022/05/06 08:58:38;;;;;;;6.78;2.20;;;;;;;15.35;36.33;101396.69;5092304;28;20126;-84
2022/05/06 09:01:05;;;;;;;3.05;1.92;;;;;;;15.44;36.20;101387.72;5092228;28;20036;-84
2022/05/06 09:03:30;;;;;;;5.22;2.03;;;;;;;15.74;36.16;101390.16;5092421;28;20036;-84
2022/05/06 09:05:59;;;;;;;4.15;2.08;;;;;;;16.00;35.61;101390.63;5092147;28;20070;-84
2022/05/06 09:08:57;;;;;;;;;;;;;;;16.21;35.63;101388.38;5090833;28;20517;-83
2022/05/06 09:14:14;;;;;;;2.92;1.98;;;;;;;16.71;35.56;101380.38;5095303;28;20494;-83
2022/05/06 09:16:40;;;;;;;4.07;2.30;;;;;;;16.80;35.34;101378.53;5092170;28;20465;-83
2022/05/06 09:19:19;;;;;;;3.25;2.03;;;;;;;16.97;35.38;101389.84;5090914;28;20123;-83
2022/05/06 09:22:05;;;;;;;3.90;1.83;;;;;;;17.01;35.28;101378.97;5091694;28;20040;-82
2022/05/06 09:24:35;;;;;;;5.10;1.90;;;;;;;16.96;35.39;101376.28;5073734;28;20036;-83
2022/05/06 09:27:14;;;;;;;3.33;1.90;;;;;;;16.83;35.42;101377.91;5091719;28;20598;-82
2022/05/06 09:29:51;;;;;;;5.40;2.33;;;;;;;16.82;36.15;101370.72;5096341;28;20039;-83
2022/05/06 09:32:20;;;;;;;6.28;2.40;;;;;;;16.67;36.16;101380.16;5101423;28;20498;-82
2022/05/06 09:34:51;;;;;;;5.63;2.47;;;;;;;16.54;36.62;101380.91;5101199;28;20071;-83
2022/05/06 09:37:29;;;;;;;8.02;1.75;;;;;;;16.43;36.77;101377.47;5111731;28;20086;-83
2022/05/06 09:40:02;;;;;;;4.50;2.10;;;;;;;16.34;36.69;101376.53;5111538;28;20168;-82
2022/05/06 09:42:41;;;;;;;4.30;2.45;;;;;;;16.35;37.32;101372.63;5111443;28;20528;-82
2022/05/06 09:45:08;;;;;;;4.93;2.35;;;;;;;16.41;37.13;101367.81;5111779;28;20063;-84
2022/05/06 09:47:34;;;;;;;4.00;2.00;;;;;;;16.41;36.67;101368.66;5110891;28;20093;-83
2022/05/06 09:50:01;;;;;;;4.53;2.00;;;;;;;16.39;36.78;101367.31;5088765;28;20040;-83
2022/05/06 09:52:27;;;;;;;10.02;2.53;;;;;;;16.41;37.01;101365.88;5111567;28;20094;-84
2022/05/06 09:54:53;;;;;;;3.95;2.20;;;;;;;16.48;37.16;101366.28;5111727;28;20099;-83
2022/05/06 09:57:19;;;;;;;3.25;2.30;;;;;;;16.52;37.59;101367.34;5110655;28;20088;-83
2022/05/06 09:59:46;;;;;;;6.45;2.20;;;;;;;16.63;37.15;101369.94;5110124;28;20088;-83
2022/05/06 10:02:11;;;;;;;4.68;2.15;;;;;;;16.67;37.08;101371.03;5110156;28;20088;-83
2022/05/06 10:04:39;;;;;;;4.63;1.77;;;;;;;16.65;37.02;101371.28;5111324;28;20062;-84
2022/05/06 10:07:07;;;;;;;5.82;1.88;;;;;;;16.58;37.50;101365.31;5111337;28;20077;-83
2022/05/06 10:09:37;;;;;;;8.35;2.40;;;;;;;16.53;37.55;101365.41;5111512;28;20513;-83
2022/05/06 10:12:04;;;;;;;4.28;2.00;;;;;;;16.54;37.64;101375.38;5093217;28;20509;-82
2022/05/06 10:14:31;;;;;;;4.00;2.10;;;;;;;16.39;37.37;101359.81;5111508;28;20070;-83
2022/05/06 10:16:56;;;;;;;6.93;2.10;;;;;;;16.26;37.59;101369.72;5111621;28;20501;-82
2022/05/06 10:19:44;;;;;;;4.70;2.22;;;;;;;16.21;37.73;101366.22;5111938;28;20057;-83
2022/05/06 10:22:10;;;;;;;2.35;2.00;;;;;;;16.23;38.09;101366.72;5115275;28;20067;-83
2022/05/06 10:24:41;;;;;;;5.50;2.17;;;;;;;16.24;38.01;101365.59;5117138;28;20520;-83
2022/05/06 10:27:23;;;;;;;3.88;2.10;;;;;;;16.30;37.45;101364.38;5101254;28;20054;-83
2022/05/06 10:32:53;;;;;;;5.30;2.50;;;;;;;16.22;37.55;101367.84;5102737;28;20108;-83
2022/05/06 10:35:36;;;;;;;6.32;2.20;;;;;;;16.18;37.63;101367.63;5095170;28;20036;-83
2022/05/06 10:38:18;;;;;;;2.88;2.17;;;;;;;16.18;37.65;101364.06;5094918;28;20105;-83
2022/05/06 10:40:53;;;;;;;2.70;1.92;;;;;;;16.17;38.38;101370.72;5097370;28;20139;-83
2022/05/06 10:43:40;;;;;;;4.40;2.33;;;;;;;16.15;37.97;101361.88;5095489;27;20109;-83
2022/05/06 10:46:09;;;;;;;3.93;2.07;;;;;;;16.17;37.75;101366.00;5134642;27;20088;-83
2022/05/06 10:48:35;;;;;;;2.38;1.90;;;;;;;16.18;38.43;101366.81;5134309;27;20039;-83
2022/05/06 10:51:20;;;;;;;4.78;2.03;;;;;;;16.19;37.75;101379.53;5135669;27;20050;-84
2022/05/06 10:53:46;;;;;;;5.10;2.13;;;;;;;16.21;38.14;101372.56;5134741;27;20039;-83
2022/05/06 10:56:12;;;;;;;3.65;1.83;;;;;;;16.21;37.79;101372.56;5135789;27;20047;-84
2022/05/06 10:58:38;;;;;;;3.67;2.10;;;;;;;16.22;37.39;101378.94;5135531;27;20035;-84
2022/05/06 11:01:04;;;;;;;4.30;1.80;;;;;;;16.23;38.13;101377.81;5134209;27;20064;-84
2022/05/06 11:03:29;;;;;;;6.07;1.80;;;;;;;16.23;38.51;101373.09;5135793;27;20497;-83
2022/05/06 11:05:55;;;;;;;5.82;2.28;;;;;;;16.32;38.20;101372.41;5116810;27;20035;-84
2022/05/06 11:08:31;;;;;;;6.35;2.42;;;;;;;16.35;37.55;101366.28;5134144;27;20031;-84
2022/05/06 11:10:57;;;;;;;3.28;1.90;;;;;;;16.41;38.32;101370.59;5135192;27;20094;-84
2022/05/06 11:13:24;;;;;;;2.85;1.77;;;;;;;16.42;37.74;101378.59;5135273;27;20125;-84
2022/05/06 11:15:50;;;;;;;2.90;1.70;;;;;;;16.43;37.89;101377.47;5135424;27;20111;-85
2022/05/06 11:18:15;;;;;;;4.28;1.85;;;;;;;16.48;37.54;101377.38;5134272;27;20514;-85
2022/05/06 11:20:41;;;;;;;3.83;1.80;;;;;;;16.51;37.70;101376.78;5127028;27;20046;-85
2022/05/06 11:23:07;;;;;;;1.88;1.77;;;;;;;16.53;37.47;101380.09;5113295;28;20099;-84
2022/05/06 11:25:34;;;;;;;3.45;2.25;;;;;;;16.50;37.81;101375.16;5114533;28;20157;-85
2022/05/06 11:28:12;;;;;;;2.75;1.70;;;;;;;16.47;37.29;101372.97;5112911;28;20130;-83
2022/05/06 11:30:39;;;;;;;3.65;1.88;;;;;;;16.43;37.81;101371.94;5114628;28;20402;-83
2022/05/06 11:33:05;;;;;;;5.30;2.47;;;;;;;16.34;37.75;101365.44;5112702;28;20067;-84
2022/05/06 11:35:33;;;;;;;5.30;2.42;;;;;;;16.26;38.37;101357.81;5114266;28;20485;-84
2022/05/06 11:37:59;;;;;;;9.03;2.67;;;;;;;16.22;38.18;101368.69;5096259;28;20046;-84
2022/05/06 11:40:35;;;;;;;4.18;1.95;;;;;;;16.24;38.33;101360.06;5096425;28;20876;-83
2022/05/06 11:43:23;;;;;;;3.55;2.15;;;;;;;16.25;37.77;101351.44;5114856;28;20063;-83
2022/05/06 11:48:44;;;;;;;4.65;1.73;;;;;;;16.27;38.09;101359.47;5114026;28;20520;-83
2022/05/06 11:51:12;;;;;;;5.07;2.40;;;;;;;16.23;37.71;101353.69;5112697;28;20043;-84
2022/05/06 11:53:40;;;;;;;2.40;1.90;;;;;;;16.23;37.34;101359.25;5112930;28;20031;-85
2022/05/06 11:56:07;;;;;;;4.07;1.90;;;;;;;16.24;37.96;101348.97;5108014;28;20081;-84
2022/05/06 11:58:34;;;;;;;6.78;2.10;;;;;;;16.23;37.61;101352.88;5084818;28;20046;-84
2022/05/06 12:01:00;;;;;;;5.30;2.00;;;;;;;16.18;37.81;101350.19;5091840;28;20047;-84
2022/05/06 12:03:26;;;;;;;9.23;2.67;;;;;;;16.15;37.99;101346.09;5091818;28;20440;-83
2022/05/06 12:06:01;;;;;;;2.97;2.20;;;;;;;16.10;37.85;101353.63;5093392;28;20512;-83
2022/05/06 12:08:29;;;;;;;7.68;2.00;;;;;;;16.07;37.91;101359.78;5094812;28;20528;-83
2022/05/06 12:11:03;;;;;;;6.40;1.90;;;;;;;16.05;37.92;101354.56;5093048;28;20040;-84
2022/05/06 12:13:34;;;;;;;2.15;1.80;;;;;;;16.10;38.13;101359.19;5092076;28;20051;-84
2022/05/06 12:16:13;;;;;;;3.75;2.03;;;;;;;16.11;37.97;101355.28;5095016;28;20032;-84
2022/05/06 12:18:51;;;;;;;2.53;1.83;;;;;;;16.12;38.31;101354.97;5091664;28;20418;-84
2022/05/06 12:21:18;;;;;;;;;;;;;;;16.13;38.18;101356.63;5092566;28;20043;-84